createdAt,value
2019-02-16T00:00:57.785Z,99.40
2019-02-16T00:03:27.164Z,99.40
2019-02-16T00:05:57.060Z,99.40
2019-02-16T00:08:26.448Z,99.40
2019-02-16T00:10:55.798Z,99.50
2019-02-16T00:13:25.139Z,99.60
2019-02-16T00:15:54.491Z,99.60
2019-02-16T00:18:23.864Z,99.50
2019-02-16T00:20:53.205Z,99.40
2019-02-16T00:23:22.609Z,99.20
2019-02-16T00:25:51.940Z,99.20
2019-02-16T00:28:21.288Z,99.30
2019-02-16T00:30:50.676Z,99.40
2019-02-16T00:33:20.014Z,99.40
2019-02-16T00:35:49.354Z,99.50
2019-02-16T00:38:19.480Z,99.50
2019-02-16T00:40:48.754Z,99.50
2019-02-16T00:43:18.088Z,99.60
2019-02-16T00:45:47.421Z,99.60
2019-02-16T00:48:16.770Z,99.60
2019-02-16T00:50:46.142Z,99.70
2019-02-16T00:53:15.404Z,99.70
2019-02-16T00:55:44.752Z,99.80
2019-02-16T00:58:14.030Z,99.70
2019-02-16T01:00:43.679Z,99.60
2019-02-16T01:03:13.105Z,99.50
2019-02-16T01:05:42.535Z,99.50
2019-02-16T01:08:11.897Z,99.40
2019-02-16T01:10:41.246Z,99.40
2019-02-16T01:13:10.603Z,99.50
2019-02-16T01:15:40.364Z,99.80
2019-02-16T01:18:09.714Z,99.50
2019-02-16T01:20:39.000Z,99.50
2019-02-16T01:23:08.886Z,99.50
2019-02-16T01:25:38.604Z,99.60
2019-02-16T01:28:07.944Z,99.60
2019-02-16T01:30:37.287Z,99.70
2019-02-16T01:33:06.657Z,99.60
2019-02-16T01:35:35.998Z,99.70
2019-02-16T01:38:05.347Z,99.70
2019-02-16T01:40:34.620Z,99.70
2019-02-16T01:43:03.989Z,99.70
2019-02-16T01:45:33.335Z,99.80
2019-02-16T01:48:02.675Z,99.90
2019-02-16T01:50:32.043Z,99.90
2019-02-16T01:53:01.400Z,99.90
2019-02-16T01:55:30.750Z,99.90
2019-02-16T01:58:00.116Z,99.90
2019-02-16T02:00:29.808Z,99.90
2019-02-16T02:02:59.160Z,99.90
2019-02-16T02:05:28.506Z,99.90
2019-02-16T02:07:57.862Z,99.90
2019-02-16T02:10:27.399Z,99.90
2019-02-16T02:12:56.747Z,99.90
2019-02-16T02:15:26.090Z,99.90
2019-02-16T02:17:55.473Z,99.90
2019-02-16T02:20:25.643Z,99.90
2019-02-16T02:22:54.991Z,99.90
2019-02-16T02:25:24.344Z,99.90
2019-02-16T02:27:53.713Z,99.90
2019-02-16T02:30:23.037Z,99.90
2019-02-16T02:32:52.317Z,99.90
2019-02-16T02:35:21.705Z,99.90
2019-02-16T02:37:51.058Z,99.90
2019-02-16T02:40:20.414Z,99.90
2019-02-16T02:42:49.760Z,99.90
2019-02-16T02:45:19.109Z,99.90
2019-02-16T02:47:48.658Z,99.90
2019-02-16T02:50:18.000Z,99.90
2019-02-16T02:52:49.098Z,99.90
2019-02-16T02:55:18.592Z,99.90
2019-02-16T02:57:48.103Z,99.90
2019-02-16T03:00:17.699Z,99.90
2019-02-16T03:02:47.361Z,99.90
2019-02-16T03:05:16.713Z,99.90
2019-02-16T03:07:46.064Z,99.80
2019-02-16T03:10:15.419Z,99.80
2019-02-16T03:12:44.786Z,99.80
2019-02-16T03:15:14.120Z,99.90
2019-02-16T03:17:43.497Z,99.90
2019-02-16T03:20:12.847Z,99.90
2019-02-16T03:23:12.681Z,99.90
2019-02-16T03:25:44.010Z,99.90
2019-02-16T03:28:46.711Z,99.90
2019-02-16T03:31:56.660Z,99.90
2019-02-16T03:34:33.222Z,99.90
2019-02-16T03:37:37.730Z,99.90
2019-02-16T03:40:07.803Z,99.80
2019-02-16T03:42:37.254Z,99.70
2019-02-16T03:45:06.869Z,99.70
2019-02-16T03:47:36.193Z,99.60
2019-02-16T03:50:05.578Z,99.70
2019-02-16T03:52:34.935Z,99.70
2019-02-16T03:55:04.378Z,99.60
2019-02-16T03:57:33.759Z,99.70
2019-02-16T04:00:03.108Z,99.80
2019-02-16T04:02:32.451Z,99.90
2019-02-16T04:05:01.826Z,99.90
2019-02-16T04:07:31.185Z,99.80
2019-02-16T04:10:00.561Z,99.80
2019-02-16T04:12:29.888Z,99.90
2019-02-16T04:14:59.285Z,99.90
2019-02-16T04:17:28.648Z,99.80
2019-02-16T04:19:58.536Z,99.90
2019-02-16T04:22:28.218Z,99.90
2019-02-16T04:24:57.555Z,99.90
2019-02-16T04:27:26.856Z,99.80
2019-02-16T04:29:56.234Z,99.70
2019-02-16T04:32:25.612Z,99.80
2019-02-16T04:34:54.974Z,99.70
2019-02-16T04:37:24.777Z,99.60
2019-02-16T04:39:54.077Z,99.50
2019-02-16T04:42:23.403Z,99.50
2019-02-16T04:44:52.748Z,99.50
2019-02-16T04:47:22.155Z,99.60
2019-02-16T04:49:51.497Z,99.50
2019-02-16T04:52:20.839Z,99.40
2019-02-16T04:54:50.177Z,99.40
2019-02-16T04:57:19.525Z,99.40
2019-02-16T04:59:48.919Z,99.30
2019-02-16T05:02:18.288Z,99.30
2019-02-16T05:04:47.664Z,99.40
2019-02-16T05:07:17.019Z,99.40
2019-02-16T05:09:46.647Z,99.40
2019-02-16T05:12:16.009Z,99.40
2019-02-16T05:14:45.351Z,99.40
2019-02-16T05:17:14.702Z,99.40
2019-02-16T05:19:44.318Z,99.40
2019-02-16T05:22:13.706Z,99.50
2019-02-16T05:24:43.054Z,99.60
2019-02-16T05:27:12.417Z,99.60
2019-02-16T05:29:41.683Z,99.60
2019-02-16T05:32:11.046Z,99.70
2019-02-16T05:34:40.420Z,99.80
2019-02-16T05:37:09.807Z,99.90
2019-02-16T05:39:39.191Z,99.90
2019-02-16T05:42:08.606Z,99.90
2019-02-16T05:44:37.948Z,99.90
2019-02-16T05:47:07.335Z,99.90
2019-02-16T05:49:36.712Z,99.90
2019-02-16T05:52:06.141Z,99.90
2019-02-16T05:54:35.491Z,99.80
2019-02-16T05:57:04.865Z,99.70
2019-02-16T05:59:34.211Z,99.90
2019-02-16T06:02:03.565Z,99.90
2019-02-16T06:04:32.866Z,99.90
2019-02-16T06:07:02.203Z,99.80
2019-02-16T06:09:31.607Z,99.70
2019-02-16T06:12:00.954Z,99.60
2019-02-16T06:14:30.301Z,99.50
2019-02-16T06:16:59.684Z,99.50
2019-02-16T06:19:29.279Z,99.40
2019-02-16T06:21:58.628Z,99.40
2019-02-16T06:24:27.963Z,99.30
2019-02-16T06:26:57.320Z,99.30
2019-02-16T06:29:26.724Z,99.10
2019-02-16T06:31:56.104Z,99.10
2019-02-16T06:34:25.519Z,99.10
2019-02-16T06:36:54.930Z,99.10
2019-02-16T06:39:24.323Z,99.20
2019-02-16T06:41:53.716Z,99.10
2019-02-16T06:44:23.052Z,99.10
2019-02-16T06:46:52.941Z,99.10
2019-02-16T06:49:22.272Z,99.10
2019-02-16T06:51:51.651Z,99.20
2019-02-16T06:54:21.322Z,99.30
2019-02-16T06:57:24.536Z,99.30
2019-02-16T06:59:53.967Z,99.40
2019-02-16T07:02:24.305Z,99.70
2019-02-16T07:04:53.668Z,99.90
2019-02-16T07:07:23.058Z,99.80
2019-02-16T07:09:52.497Z,99.90
2019-02-16T07:12:21.877Z,99.90
2019-02-16T07:14:51.222Z,99.90
2019-02-16T07:17:48.455Z,99.90
2019-02-16T07:20:19.805Z,99.90
2019-02-16T07:22:49.151Z,99.90
2019-02-16T07:25:18.493Z,99.90
2019-02-16T07:27:47.867Z,99.90
2019-02-16T07:30:17.234Z,99.90
2019-02-16T07:32:46.630Z,99.90
2019-02-16T07:35:15.983Z,99.90
2019-02-16T07:37:46.258Z,99.90
2019-02-16T07:40:15.565Z,99.90
2019-02-16T07:42:49.779Z,99.90
2019-02-16T07:45:27.665Z,99.90
2019-02-16T07:48:18.962Z,99.90
2019-02-16T07:51:00.673Z,99.80
2019-02-16T07:53:52.026Z,99.60
2019-02-16T07:56:25.674Z,99.20
2019-02-16T07:59:14.001Z,99.20
2019-02-16T08:01:49.257Z,99.10
2019-02-16T08:04:55.901Z,99.00
2019-02-16T08:07:39.774Z,99.00
2019-02-16T08:10:31.102Z,99.10
2019-02-16T08:13:22.531Z,99.30
2019-02-16T08:16:09.509Z,99.50
2019-02-16T08:19:03.986Z,99.70
2019-02-16T08:21:53.662Z,99.80
2019-02-16T08:24:51.991Z,99.70
2019-02-16T08:27:46.095Z,99.60
2019-02-16T08:30:27.361Z,99.90
2019-02-16T08:33:15.675Z,99.90
2019-02-16T08:35:56.556Z,99.90
2019-02-16T08:38:43.705Z,99.80
2019-02-16T08:41:40.868Z,99.50
2019-02-16T08:44:29.308Z,99.50
2019-02-16T08:47:16.157Z,99.50
2019-02-16T08:49:56.757Z,99.30
2019-02-16T08:52:45.086Z,99.20
2019-02-16T08:55:31.823Z,99.20
2019-02-16T08:58:28.873Z,99.30
2019-02-16T09:01:17.242Z,99.20
2019-02-16T09:03:53.821Z,99.30
2019-02-16T09:06:40.547Z,99.20
2019-02-16T09:09:37.610Z,99.30
2019-02-16T09:12:27.558Z,99.20
2019-02-16T09:15:18.615Z,99.20
2019-02-16T09:18:04.021Z,99.30
2019-02-16T09:20:52.753Z,99.30
2019-02-16T09:23:39.764Z,99.20
2019-02-16T09:26:25.641Z,99.00
2019-02-16T09:29:07.768Z,99.10
2019-02-16T09:32:02.287Z,99.10
2019-02-16T09:34:59.746Z,99.10
2019-02-16T09:37:53.952Z,99.20
2019-02-16T09:40:45.445Z,99.00
2019-02-16T09:43:40.978Z,98.80
2019-02-16T09:46:29.336Z,98.60
2019-02-16T09:49:32.834Z,98.50
2019-02-16T09:52:21.201Z,98.40
2019-02-16T09:55:02.533Z,98.30
2019-02-16T09:57:49.551Z,98.10
2019-02-16T10:00:40.038Z,98.20
2019-02-16T10:03:27.274Z,98.30
2019-02-16T10:06:14.249Z,98.30
2019-02-16T10:08:58.377Z,98.00
2019-02-16T10:11:52.482Z,97.80
2019-02-16T10:14:38.825Z,98.00
2019-02-16T10:17:27.143Z,97.80
2019-02-16T10:20:15.477Z,97.40
2019-02-16T10:23:03.796Z,97.30
2019-02-16T10:26:03.971Z,96.80
2019-02-16T10:28:58.562Z,96.40
2019-02-16T10:31:45.723Z,95.90
2019-02-16T10:34:28.754Z,95.20
2019-02-16T10:37:17.071Z,94.50
2019-02-16T10:40:05.408Z,94.00
2019-02-16T10:42:44.389Z,94.40
2019-02-16T10:45:48.502Z,94.70
2019-02-16T10:48:31.271Z,93.40
2019-02-16T10:51:11.468Z,93.00
2019-02-16T10:54:00.995Z,91.90
2019-02-16T10:56:40.174Z,91.80
2019-02-16T10:59:31.648Z,90.20
2019-02-16T11:02:10.303Z,90.60
2019-02-16T11:05:02.706Z,90.70
2019-02-16T11:08:06.184Z,90.60
2019-02-16T11:10:54.649Z,88.50
2019-02-16T11:13:41.448Z,89.10
2019-02-16T11:16:38.524Z,89.20
2019-02-16T11:19:27.230Z,86.90
2019-02-16T11:22:04.882Z,87.50
2019-02-16T11:24:46.136Z,88.40
2019-02-16T11:27:40.518Z,88.00
2019-02-16T11:30:21.326Z,85.40
2019-02-16T11:33:01.690Z,85.60
2019-02-16T11:35:40.391Z,83.50
2019-02-16T11:38:34.812Z,83.10
2019-02-16T11:41:23.119Z,83.70
2019-02-16T11:44:17.853Z,83.70
2019-02-16T11:47:12.230Z,82.60
2019-02-16T11:49:59.247Z,81.00
2019-02-16T11:52:45.980Z,80.40
2019-02-16T11:55:43.521Z,79.70
2019-02-16T11:58:23.663Z,79.90
2019-02-16T12:01:14.764Z,79.10
2019-02-16T12:04:10.555Z,79.60
2019-02-16T12:07:11.100Z,78.00
2019-02-16T12:09:57.821Z,77.40
2019-02-16T12:12:44.646Z,76.90
2019-02-16T12:15:31.361Z,75.20
2019-02-16T12:18:15.580Z,74.10
2019-02-16T12:21:13.040Z,72.60
2019-02-16T12:23:55.440Z,72.20
2019-02-16T12:26:42.513Z,72.90
2019-02-16T12:29:29.518Z,70.10
2019-02-16T12:32:18.174Z,71.30
2019-02-16T12:35:04.584Z,70.10
2019-02-16T12:37:53.306Z,70.50
2019-02-16T12:40:50.695Z,70.00
2019-02-16T12:43:39.015Z,69.00
2019-02-16T12:46:33.113Z,66.90
2019-02-16T12:49:27.219Z,67.50
2019-02-16T12:52:18.899Z,66.30
2019-02-16T12:54:54.975Z,64.80
2019-02-16T12:57:30.868Z,62.90
2019-02-16T13:00:16.830Z,63.50
2019-02-16T13:03:03.611Z,61.80
2019-02-16T13:05:58.127Z,60.00
2019-02-16T13:08:35.955Z,58.90
2019-02-16T13:11:23.549Z,59.30
2019-02-16T13:14:10.162Z,58.60
2019-02-16T13:17:01.504Z,58.10
2019-02-16T13:19:52.832Z,58.50
2019-02-16T13:22:28.541Z,55.40
2019-02-16T13:25:13.435Z,54.00
2019-02-16T13:28:01.804Z,54.00
2019-02-16T13:30:40.353Z,55.20
2019-02-16T13:33:31.718Z,52.80
2019-02-16T13:36:19.337Z,52.20
2019-02-16T13:38:57.610Z,48.30
2019-02-16T13:41:43.690Z,47.80
2019-02-16T13:44:21.785Z,48.10
2019-02-16T13:47:10.099Z,47.40
2019-02-16T13:49:49.155Z,44.60
2019-02-16T13:52:39.456Z,45.40
2019-02-16T13:55:36.072Z,42.40
2019-02-16T13:58:29.561Z,43.50
2019-02-16T14:01:06.439Z,42.70
2019-02-16T14:03:53.117Z,41.50
2019-02-16T14:06:46.884Z,41.90
2019-02-16T14:09:22.045Z,41.00
2019-02-16T14:12:13.295Z,40.10
2019-02-16T14:15:13.484Z,39.70
2019-02-16T14:17:48.786Z,41.30
2019-02-16T14:20:18.136Z,39.50
2019-02-16T14:22:48.002Z,39.70
2019-02-16T14:25:22.694Z,42.60
2019-02-16T14:27:52.057Z,38.50
2019-02-16T14:30:21.416Z,39.90
2019-02-16T14:32:50.786Z,40.30
2019-02-16T14:35:20.603Z,40.40
2019-02-16T14:38:04.231Z,40.10
2019-02-16T14:40:33.600Z,40.80
2019-02-16T14:43:02.970Z,38.60
2019-02-16T14:45:34.819Z,39.40
2019-02-16T14:48:04.187Z,40.30
2019-02-16T14:50:33.572Z,39.70
2019-02-16T14:53:03.229Z,39.80
2019-02-16T14:55:32.587Z,39.90
2019-02-16T14:58:02.006Z,39.90
2019-02-16T15:00:31.357Z,40.00
2019-02-16T15:03:00.709Z,38.60
2019-02-16T15:05:30.100Z,39.90
2019-02-16T15:07:59.890Z,40.80
2019-02-16T15:10:29.725Z,40.80
2019-02-16T15:12:59.283Z,41.30
2019-02-16T15:15:28.764Z,36.20
2019-02-16T15:17:58.136Z,38.70
2019-02-16T15:20:27.627Z,36.80
2019-02-16T15:22:57.715Z,36.60
2019-02-16T15:25:27.083Z,37.60
2019-02-16T15:27:56.806Z,37.10
2019-02-16T15:30:26.214Z,36.30
2019-02-16T15:32:55.862Z,38.50
2019-02-16T15:35:25.236Z,38.70
2019-02-16T15:37:54.638Z,41.00
2019-02-16T15:40:23.995Z,39.50
2019-02-16T15:42:53.412Z,41.60
2019-02-16T15:45:23.091Z,42.20
2019-02-16T15:47:52.489Z,43.50
2019-02-16T15:50:21.934Z,44.40
2019-02-16T15:52:52.092Z,46.30
2019-02-16T15:55:21.470Z,48.40
2019-02-16T15:57:50.835Z,50.20
2019-02-16T16:00:23.488Z,51.10
2019-02-16T16:02:53.010Z,51.90
2019-02-16T16:05:22.408Z,53.00
2019-02-16T16:08:00.082Z,54.20
2019-02-16T16:10:36.566Z,55.10
2019-02-16T16:13:23.868Z,55.80
2019-02-16T16:16:12.009Z,56.50
2019-02-16T16:19:05.649Z,57.00
2019-02-16T16:21:56.579Z,57.70
2019-02-16T16:24:45.103Z,58.40
2019-02-16T16:27:29.443Z,59.30
2019-02-16T16:30:20.867Z,59.50
2019-02-16T16:33:07.913Z,59.80
2019-02-16T16:36:01.045Z,60.30
2019-02-16T16:39:04.725Z,61.60
2019-02-16T16:41:56.939Z,62.70
2019-02-16T16:44:34.185Z,63.80
2019-02-16T16:47:22.533Z,64.30
2019-02-16T16:50:18.775Z,65.00
2019-02-16T16:53:14.409Z,66.10
2019-02-16T16:56:02.758Z,67.60
2019-02-16T16:58:57.209Z,69.00
2019-02-16T17:01:45.547Z,69.70
2019-02-16T17:04:26.180Z,70.30
2019-02-16T17:07:24.824Z,71.10
2019-02-16T17:10:31.412Z,70.90
2019-02-16T17:13:37.576Z,71.50
2019-02-16T17:16:24.231Z,71.90
2019-02-16T17:18:58.912Z,73.00
2019-02-16T17:21:45.856Z,73.60
2019-02-16T17:24:32.925Z,74.50
2019-02-16T17:27:20.043Z,74.70
2019-02-16T17:30:07.035Z,75.40
2019-02-16T17:32:58.140Z,75.10
2019-02-16T17:35:36.948Z,75.00
2019-02-16T17:38:30.033Z,75.10
2019-02-16T17:41:24.123Z,74.90
2019-02-16T17:44:24.419Z,74.90
2019-02-16T17:47:18.149Z,74.70
2019-02-16T17:49:55.489Z,75.00
2019-02-16T17:52:42.511Z,75.10
2019-02-16T17:55:39.655Z,75.80
2019-02-16T17:58:28.046Z,76.10
2019-02-16T18:01:14.808Z,76.50
2019-02-16T18:04:06.707Z,76.70
2019-02-16T18:06:49.410Z,77.00
2019-02-16T18:09:38.227Z,77.30
2019-02-16T18:12:41.455Z,77.00
2019-02-16T18:15:32.844Z,77.00
2019-02-16T18:18:11.256Z,77.30
2019-02-16T18:21:05.569Z,77.70
2019-02-16T18:23:57.916Z,77.90
2019-02-16T18:26:44.500Z,78.20
2019-02-16T18:29:50.796Z,78.50
2019-02-16T18:32:46.471Z,78.70
2019-02-16T18:35:33.226Z,78.40
2019-02-16T18:38:33.838Z,77.90
2019-02-16T18:41:27.928Z,77.50
2019-02-16T18:44:14.660Z,76.80
2019-02-16T18:47:08.810Z,76.60
2019-02-16T18:49:51.339Z,76.20
2019-02-16T18:52:30.324Z,75.60
2019-02-16T18:55:11.020Z,75.20
2019-02-16T18:57:56.168Z,75.00
2019-02-16T19:00:37.048Z,74.50
2019-02-16T19:03:23.065Z,74.20
2019-02-16T19:06:26.320Z,74.10
2019-02-16T19:09:14.691Z,73.50
2019-02-16T19:12:01.940Z,73.00
2019-02-16T19:14:58.257Z,72.20
2019-02-16T19:17:46.634Z,71.70
2019-02-16T19:20:34.977Z,71.80
2019-02-16T19:23:22.119Z,71.40
2019-02-16T19:25:59.013Z,71.00
2019-02-16T19:28:49.174Z,70.40
2019-02-16T19:31:43.519Z,69.70
2019-02-16T19:34:20.537Z,69.20
2019-02-16T19:37:11.953Z,68.10
2019-02-16T19:40:00.323Z,67.50
2019-02-16T19:42:51.553Z,66.90
2019-02-16T19:45:39.874Z,67.70
2019-02-16T19:48:27.552Z,67.00
2019-02-16T19:51:07.355Z,66.90
2019-02-16T19:53:57.947Z,66.40
2019-02-16T19:56:44.644Z,66.40
2019-02-16T19:59:29.808Z,65.90
2019-02-16T20:02:21.241Z,65.40
2019-02-16T20:04:58.361Z,65.40
2019-02-16T20:07:38.185Z,65.60
2019-02-16T20:10:15.131Z,64.80
2019-02-16T20:13:03.403Z,64.60
2019-02-16T20:15:50.119Z,64.90
2019-02-16T20:18:32.778Z,64.90
2019-02-16T20:21:32.945Z,65.20
2019-02-16T20:24:07.398Z,65.50
2019-02-16T20:27:13.907Z,65.60
2019-02-16T20:29:49.728Z,65.90
2019-02-16T20:32:45.986Z,66.00
2019-02-16T20:35:38.617Z,66.40
2019-02-16T20:38:19.932Z,66.50
2019-02-16T20:41:07.892Z,67.10
2019-02-16T20:44:02.130Z,67.10
2019-02-16T20:46:36.736Z,67.10
2019-02-16T20:49:37.036Z,67.10
2019-02-16T20:52:19.455Z,66.90
2019-02-16T20:55:10.917Z,66.50
2019-02-16T20:57:56.599Z,66.30
2019-02-16T21:00:45.651Z,66.20
2019-02-16T21:03:46.131Z,65.80
2019-02-16T21:06:40.635Z,65.20
2019-02-16T21:09:44.212Z,64.90
2019-02-16T21:12:44.411Z,64.90
2019-02-16T21:15:38.830Z,65.00
2019-02-16T21:18:45.667Z,64.10
2019-02-16T21:21:45.868Z,64.50
2019-02-16T21:24:24.684Z,64.60
2019-02-16T21:27:13.076Z,64.30
2019-02-16T21:30:08.315Z,64.90
2019-02-16T21:32:53.331Z,63.70
2019-02-16T21:35:41.684Z,62.30
2019-02-16T21:38:29.775Z,62.20
2019-02-16T21:41:10.892Z,61.70
2019-02-16T21:44:11.158Z,60.40
2019-02-16T21:47:14.355Z,60.10
2019-02-16T21:50:08.806Z,59.70
2019-02-16T21:52:45.491Z,59.50
2019-02-16T21:55:35.417Z,59.80
2019-02-16T21:58:22.642Z,59.80
2019-02-16T22:01:27.467Z,59.50
2019-02-16T22:04:18.873Z,58.80
2019-02-16T22:07:03.573Z,59.50
2019-02-16T22:10:07.116Z,59.70
2019-02-16T22:13:13.715Z,59.40
2019-02-16T22:15:44.486Z,59.50
2019-02-16T22:18:13.849Z,59.70
2019-02-16T22:20:43.235Z,59.70
2019-02-16T22:23:12.641Z,59.80
2019-02-16T22:25:42.057Z,59.70
2019-02-16T22:28:18.192Z,59.90
2019-02-16T22:30:42.533Z,60.00
2019-02-16T22:33:12.243Z,60.20
2019-02-16T22:35:41.590Z,60.40
2019-02-16T22:38:10.980Z,60.20
2019-02-16T22:40:40.395Z,60.70
2019-02-16T22:43:09.772Z,60.60
2019-02-16T22:45:39.178Z,60.70
2019-02-16T22:48:08.534Z,61.10
2019-02-16T22:50:39.805Z,61.30
2019-02-16T22:53:08.927Z,61.60
2019-02-16T22:55:38.302Z,61.80
2019-02-16T22:58:07.930Z,61.60
2019-02-16T23:00:44.223Z,62.00
2019-02-16T23:03:14.032Z,61.30
2019-02-16T23:05:44.595Z,61.80
2019-02-16T23:08:13.952Z,61.90
2019-02-16T23:10:43.343Z,62.10
2019-02-16T23:13:13.996Z,62.60
2019-02-16T23:15:44.187Z,62.50
2019-02-16T23:18:13.594Z,62.90
2019-02-16T23:20:42.963Z,62.10
2019-02-16T23:23:12.372Z,62.00
2019-02-16T23:25:41.730Z,61.60
2019-02-16T23:28:11.444Z,62.30
2019-02-16T23:30:40.776Z,61.40
2019-02-16T23:33:10.146Z,61.00
2019-02-16T23:35:39.529Z,60.80
2019-02-16T23:38:08.915Z,61.10
2019-02-16T23:40:38.333Z,60.80
2019-02-16T23:43:08.013Z,60.90
2019-02-16T23:45:37.412Z,60.50
2019-02-16T23:48:07.460Z,60.30
2019-02-16T23:50:36.887Z,61.20
2019-02-16T23:53:06.367Z,60.70
2019-02-16T23:55:36.672Z,60.50
2019-02-16T23:58:06.022Z,60.60
